createdAt,value
2022-09-12T00:02:16.916Z,4.10
2022-09-12T00:17:20.079Z,4.50
2022-09-12T00:32:23.353Z,3.70
2022-09-12T00:47:33.043Z,3.60
2022-09-12T01:02:36.226Z,2.80
2022-09-12T01:18:13.891Z,3.40
2022-09-12T01:33:34.390Z,3.60
2022-09-12T01:48:46.117Z,3.90
2022-09-12T02:03:59.015Z,3.60
2022-09-12T02:19:13.099Z,7.00
2022-09-12T02:34:49.550Z,4.00
2022-09-12T02:49:54.224Z,5.90
2022-09-12T03:05:26.616Z,4.70
2022-09-12T03:20:49.855Z,7.80
2022-09-12T03:35:53.780Z,8.20
2022-09-12T03:51:00.817Z,4.50
2022-09-12T04:06:03.996Z,4.10
2022-09-12T04:21:10.398Z,5.30
2022-09-12T04:36:18.252Z,4.90
2022-09-12T04:51:28.054Z,4.00
2022-09-12T05:06:34.694Z,6.80
2022-09-12T05:21:38.183Z,7.00
2022-09-12T05:36:41.775Z,4.10
2022-09-12T05:51:46.396Z,12.60
2022-09-12T06:06:50.432Z,4.80
2022-09-12T06:21:54.209Z,3.60
2022-09-12T06:36:58.213Z,3.20
2022-09-12T06:52:01.644Z,2.80
2022-09-12T07:07:06.020Z,3.00
2022-09-12T07:22:09.222Z,2.10
2022-09-12T07:37:12.523Z,2.40
2022-09-12T07:52:15.756Z,2.40
2022-09-12T08:07:19.406Z,2.10
2022-09-12T08:22:23.324Z,1.90
2022-09-12T08:37:29.965Z,2.30
2022-09-12T08:53:02.791Z,2.60
2022-09-12T09:08:36.283Z,1.90
2022-09-12T09:23:45.021Z,2.10
2022-09-12T09:39:06.746Z,1.80
2022-09-12T09:54:50.279Z,2.00
2022-09-12T10:10:18.516Z,1.70
2022-09-12T10:25:25.994Z,2.10
2022-09-12T10:40:39.467Z,2.30
2022-09-12T10:56:09.231Z,1.90
2022-09-12T11:11:56.811Z,1.70
2022-09-12T11:27:30.905Z,1.50
2022-09-12T11:42:39.147Z,2.50
2022-09-12T11:57:42.517Z,2.00
2022-09-12T12:12:46.842Z,1.90
2022-09-12T12:27:54.812Z,1.70
2022-09-12T12:43:03.933Z,2.00
2022-09-12T12:58:20.324Z,4.30
2022-09-12T13:13:29.007Z,4.90
2022-09-12T13:28:32.754Z,2.30
2022-09-12T13:43:41.980Z,1.80
2022-09-12T13:58:58.190Z,3.50
2022-09-12T14:14:07.078Z,2.60
2022-09-12T14:29:15.225Z,9.40
2022-09-12T14:44:24.633Z,9.30
2022-09-12T14:59:40.418Z,4.60
2022-09-12T15:14:44.038Z,4.80
2022-09-12T15:29:47.984Z,2.80
2022-09-12T15:44:53.872Z,3.80
2022-09-12T15:59:57.929Z,3.60
2022-09-12T16:15:01.542Z,3.30
2022-09-12T16:30:07.800Z,6.40
2022-09-12T16:45:13.318Z,4.40
2022-09-12T17:00:17.447Z,13.00
2022-09-12T17:15:21.211Z,29.00
2022-09-12T17:30:25.315Z,25.60
2022-09-12T17:45:30.649Z,67.40
2022-09-12T18:00:54.760Z,50.10
2022-09-12T18:16:11.355Z,48.30
2022-09-12T18:31:18.742Z,22.60
2022-09-12T18:46:25.440Z,27.60
2022-09-12T19:01:32.838Z,42.30
2022-09-12T19:16:37.265Z,16.30
2022-09-12T19:31:40.789Z,16.70
2022-09-12T19:46:46.277Z,24.90
2022-09-12T20:01:50.334Z,18.90
2022-09-12T20:16:53.728Z,6.60
2022-09-12T20:31:57.108Z,11.90
2022-09-12T20:47:00.550Z,6.00
2022-09-12T21:02:04.137Z,7.30
2022-09-12T21:17:07.532Z,16.00
2022-09-12T21:32:14.063Z,16.30
2022-09-12T21:47:17.931Z,21.90
2022-09-12T22:02:23.151Z,14.50
2022-09-12T22:17:26.256Z,14.80
2022-09-12T22:32:29.243Z,16.60
2022-09-12T22:47:32.352Z,20.50
2022-09-12T23:02:35.415Z,16.30
2022-09-12T23:17:38.460Z,11.20
2022-09-12T23:32:41.485Z,11.70
2022-09-12T23:47:44.747Z,12.10
